Time;durP1;ratioP1;P1;durP2;ratioP2;P2;SDS_P1;SDS_P2;PMS_P1;PMS_P2;Temp;Humidity;BMP_temperature;BMP_pressure;BME280_temperature;BME280_humidity;BME280_pressure;Samples;Min_cycle;Max_cycle;Signal;HPM_P1;HPM_P2
2022/08/10 00:02:33;;;;;;;4.63;3.03;;;;;;;18.66;57.54;102885.22;5151093;28;20850;-59
2022/08/10 00:05:09;;;;;;;4.37;3.20;;;;;;;18.69;57.49;102900.13;5150780;28;20852;-60
2022/08/10 00:07:42;;;;;;;4.50;3.53;;;;;;;18.69;57.63;102890.25;5149567;28;20416;-59
2022/08/10 00:10:17;;;;;;;6.25;3.28;;;;;;;18.68;57.67;102893.94;5150566;28;20866;-61
2022/08/10 00:12:50;;;;;;;3.50;3.17;;;;;;;18.68;57.71;102893.94;5151520;28;20745;-61
2022/08/10 00:15:24;;;;;;;4.82;3.42;;;;;;;18.47;57.68;102858.63;5142445;28;20446;-60
2022/08/10 00:17:56;;;;;;;6.47;3.28;;;;;;;18.69;57.81;102895.63;5145829;28;20419;-60
2022/08/10 00:20:28;;;;;;;3.90;3.00;;;;;;;18.66;57.88;102903.94;5147745;28;20852;-60
2022/08/10 00:23:02;;;;;;;4.63;3.55;;;;;;;18.59;58.09;102892.19;5142034;28;20428;-60
2022/08/10 00:25:34;;;;;;;5.57;2.93;;;;;;;18.61;58.00;102892.84;5141615;28;20739;-60
2022/08/10 00:28:07;;;;;;;4.25;3.40;;;;;;;18.60;58.16;102892.00;5149441;28;20519;-58
2022/08/10 00:30:39;;;;;;;4.95;3.45;;;;;;;18.53;58.32;102888.28;5150040;28;20467;-59
2022/08/10 00:33:11;;;;;;;6.13;3.75;;;;;;;18.59;58.17;102895.69;5150313;28;20425;-59
2022/08/10 00:35:44;;;;;;;4.97;3.70;;;;;;;18.57;58.27;102895.00;5146125;28;20828;-60
2022/08/10 00:38:17;;;;;;;7.85;4.03;;;;;;;18.55;58.54;102891.66;5130174;28;20791;-60
2022/08/10 00:40:50;;;;;;;5.72;3.53;;;;;;;18.58;58.49;102893.16;5147097;28;20506;-59
2022/08/10 00:43:24;;;;;;;4.00;3.30;;;;;;;18.60;58.57;102892.00;5167065;28;20744;-61
2022/08/10 00:45:56;;;;;;;3.63;3.00;;;;;;;18.61;58.61;102893.72;5169411;28;20408;-60
2022/08/10 00:48:30;;;;;;;6.50;3.50;;;;;;;18.63;58.63;102890.88;5149940;28;20421;-59
2022/08/10 00:51:02;;;;;;;4.28;3.25;;;;;;;18.63;58.78;102888.19;5141698;28;20762;-59
2022/08/10 00:53:36;;;;;;;4.90;3.25;;;;;;;18.64;58.81;102892.56;5150282;28;20802;-59
2022/08/10 00:56:09;;;;;;;4.68;3.40;;;;;;;18.63;58.72;102882.84;5136610;28;20430;-59
2022/08/10 00:58:42;;;;;;;5.38;3.35;;;;;;;18.61;59.08;102879.47;5149994;28;20421;-59
2022/08/10 01:01:15;;;;;;;5.03;3.20;;;;;;;18.65;58.87;102883.53;5150145;28;20409;-60
2022/08/10 01:03:47;;;;;;;4.32;3.08;;;;;;;18.69;58.85;102881.41;5150948;28;20431;-60
2022/08/10 01:06:29;;;;;;;3.67;2.72;;;;;;;18.66;59.12;102882.53;5148912;28;20421;-60
2022/08/10 01:09:11;;;;;;;4.80;2.83;;;;;;;18.65;59.08;102879.03;5146945;28;20898;-60
2022/08/10 01:11:49;;;;;;;3.00;2.30;;;;;;;18.67;59.21;102877.06;5142996;28;20425;-60
2022/08/10 01:14:34;;;;;;;3.40;2.22;;;;;;;18.67;59.34;102877.06;5143966;28;20417;-60
2022/08/10 01:17:32;;;;;;;2.30;2.10;;;;;;;18.74;59.30;102888.00;5147967;28;20428;-59
2022/08/10 01:20:16;;;;;;;3.15;2.40;;;;;;;18.76;59.27;102875.28;5149165;28;20412;-60
2022/08/10 01:23:48;;;;;;;2.20;1.92;;;;;;;18.78;59.39;102878.66;5149426;28;20413;-61
2022/08/10 01:26:42;;;;;;;3.08;2.17;;;;;;;18.78;59.35;102875.16;5135180;28;20890;-60
2022/08/10 01:29:52;;;;;;;4.90;2.25;;;;;;;18.79;59.27;102874.16;5147833;28;20428;-60
2022/08/10 01:32:40;;;;;;;3.20;2.15;;;;;;;18.79;59.34;102866.97;5136321;28;20844;-56
2022/08/10 01:35:19;;;;;;;5.72;2.00;;;;;;;18.81;59.23;102878.38;5147903;28;20417;-60
2022/08/10 01:38:02;;;;;;;3.75;2.53;;;;;;;18.82;59.35;102873.84;5150491;28;20436;-60
2022/08/10 01:40:39;;;;;;;3.33;2.10;;;;;;;18.83;59.33;102871.03;5149531;28;20753;-60
2022/08/10 01:43:16;;;;;;;2.17;1.98;;;;;;;18.84;59.45;102870.03;5147324;28;20878;-60
2022/08/10 01:45:54;;;;;;;3.90;2.20;;;;;;;18.83;59.62;102854.13;5149949;28;20491;-60
2022/08/10 01:48:30;;;;;;;3.13;2.65;;;;;;;18.83;59.37;102863.00;5148663;28;22922;-61
2022/08/10 01:51:14;;;;;;;4.28;2.22;;;;;;;18.79;59.52;102858.09;5149680;28;20539;-60
2022/08/10 01:53:51;;;;;;;3.28;2.70;;;;;;;18.77;59.51;102868.97;5133716;28;20734;-60
2022/08/10 01:56:26;;;;;;;3.22;2.40;;;;;;;18.76;59.57;102864.59;5148827;28;20748;-60
2022/08/10 01:59:04;;;;;;;4.50;2.97;;;;;;;18.74;59.68;102866.59;5149073;28;20416;-61
2022/08/10 02:01:43;;;;;;;4.15;2.30;;;;;;;18.72;59.79;102870.38;5149492;28;20413;-61
2022/08/10 02:04:18;;;;;;;3.53;2.88;;;;;;;18.72;59.81;102871.22;5145683;28;20853;-60
2022/08/10 02:06:54;;;;;;;4.18;2.80;;;;;;;18.70;59.89;102873.19;5143468;28;20511;-61
2022/08/10 02:09:30;;;;;;;2.95;2.58;;;;;;;18.68;59.87;102875.22;5149504;28;21606;-61
2022/08/10 02:12:07;;;;;;;3.25;2.80;;;;;;;18.63;59.96;102886.34;5148456;28;20993;-61
2022/08/10 02:14:42;;;;;;;3.50;2.97;;;;;;;18.62;60.10;102868.63;5150410;28;20727;-59
2022/08/10 02:17:23;;;;;;;2.83;2.53;;;;;;;18.62;60.08;102863.28;5149123;28;20432;-60
2022/08/10 02:20:00;;;;;;;3.72;3.03;;;;;;;18.62;60.09;102865.13;5148824;28;20872;-61
2022/08/10 02:22:33;;;;;;;5.25;3.50;;;;;;;18.61;60.10;102860.75;5144619;28;20408;-60
2022/08/10 02:25:07;;;;;;;3.33;3.03;;;;;;;18.61;60.22;102855.38;5140122;28;20970;-60
2022/08/10 02:27:40;;;;;;;4.47;3.47;;;;;;;18.61;59.97;102855.38;5130707;28;20814;-61
2022/08/10 02:30:13;;;;;;;4.30;3.20;;;;;;;18.62;60.53;102859.78;5148323;28;20405;-60
2022/08/10 02:32:49;;;;;;;3.90;3.60;;;;;;;18.60;60.24;102859.06;5155269;28;20423;-60
2022/08/10 02:35:21;;;;;;;7.20;4.20;;;;;;;18.57;60.39;102862.06;5169318;28;20411;-60
2022/08/10 02:37:58;;;;;;;7.50;3.90;;;;;;;18.55;60.45;102866.69;5152001;28;20409;-60
2022/08/10 02:40:35;;;;;;;5.72;4.22;;;;;;;18.49;60.49;102852.13;5148897;28;20419;-60
2022/08/10 02:43:21;;;;;;;6.57;3.92;;;;;;;18.53;60.49;102864.19;5146739;28;20476;-60
2022/08/10 02:45:59;;;;;;;4.88;3.67;;;;;;;18.49;60.56;102865.50;5147782;28;20445;-60
2022/08/10 02:48:40;;;;;;;5.05;4.07;;;;;;;18.50;60.56;102858.31;5144016;28;20428;-60
2022/08/10 02:51:18;;;;;;;4.60;3.67;;;;;;;18.30;60.72;102828.19;5142116;28;20419;-59
2022/08/10 02:53:56;;;;;;;5.38;4.05;;;;;;;18.50;60.59;102856.47;5144364;28;20551;-59
2022/08/10 02:56:35;;;;;;;6.72;4.90;;;;;;;18.50;60.85;102861.00;5148265;28;20439;-59
2022/08/10 02:59:14;;;;;;;5.00;4.47;;;;;;;18.47;60.68;102843.41;5145859;28;20409;-58
2022/08/10 03:01:50;;;;;;;8.85;4.38;;;;;;;18.52;60.73;102848.28;5147845;28;20822;-61
2022/08/10 03:04:28;;;;;;;5.55;4.65;;;;;;;18.51;60.93;102843.94;5148127;28;20439;-60
2022/08/10 03:07:04;;;;;;;6.25;4.70;;;;;;;18.50;60.91;102847.63;5148066;28;20452;-61
2022/08/10 03:09:40;;;;;;;6.35;4.75;;;;;;;18.49;61.00;102856.63;5144968;28;20423;-54
2022/08/10 03:12:15;;;;;;;6.30;5.20;;;;;;;18.49;61.07;102851.25;5152198;28;20460;-60
2022/08/10 03:14:49;;;;;;;10.13;5.68;;;;;;;18.47;61.09;102842.56;5148258;28;20427;-60
2022/08/10 03:17:23;;;;;;;6.85;5.07;;;;;;;18.44;61.19;102839.19;5153279;28;20722;-60
2022/08/10 03:19:59;;;;;;;7.10;5.22;;;;;;;18.44;61.11;102839.19;5151906;28;20413;-60
2022/08/10 03:22:32;;;;;;;6.97;5.22;;;;;;;18.42;60.97;102829.63;5144684;28;20412;-60
2022/08/10 03:25:07;;;;;;;6.30;5.63;;;;;;;18.45;61.41;102840.03;5148030;28;20764;-60
2022/08/10 03:27:40;;;;;;;7.05;6.35;;;;;;;18.44;61.33;102833.84;5145355;28;20421;-60
2022/08/10 03:30:13;;;;;;;7.53;6.00;;;;;;;18.44;61.35;102835.69;5167952;28;20415;-60
2022/08/10 03:32:46;;;;;;;7.57;6.57;;;;;;;18.42;61.51;102835.81;5172052;28;20474;-58
2022/08/10 03:35:24;;;;;;;9.07;6.72;;;;;;;18.36;61.85;102828.41;5160895;28;20995;-60
2022/08/10 03:37:56;;;;;;;7.85;6.75;;;;;;;18.44;61.64;102833.00;5148301;28;20734;-60
2022/08/10 03:40:34;;;;;;;7.63;6.53;;;;;;;18.43;61.59;102828.66;5152425;28;20930;-60
2022/08/10 03:43:07;;;;;;;8.75;7.05;;;;;;;18.44;61.74;102830.34;5151124;28;20427;-61
2022/08/10 03:45:41;;;;;;;10.52;7.32;;;;;;;18.41;61.79;102823.44;5146126;28;20436;-60
2022/08/10 03:48:14;;;;;;;10.30;7.75;;;;;;;18.40;61.97;102824.44;5151636;28;20510;-58
2022/08/10 03:50:49;;;;;;;10.52;7.80;;;;;;;18.41;61.93;102823.44;5151838;28;20425;-59
2022/08/10 03:53:21;;;;;;;9.57;7.45;;;;;;;18.41;61.84;102823.44;5147247;28;20838;-60
2022/08/10 03:55:54;;;;;;;9.52;7.07;;;;;;;18.41;61.93;102834.16;5141668;28;20426;-61
2022/08/10 03:58:27;;;;;;;9.65;7.80;;;;;;;18.41;62.08;102833.31;5130210;28;20437;-60
2022/08/10 04:01:00;;;;;;;10.15;7.72;;;;;;;18.37;62.01;102824.75;5126215;28;20418;-59
2022/08/10 04:03:33;;;;;;;8.55;6.90;;;;;;;18.38;62.22;102823.75;5133664;28;20416;-60
2022/08/10 04:06:07;;;;;;;9.63;8.13;;;;;;;18.40;62.30;102832.47;5150632;28;20440;-60
2022/08/10 04:08:41;;;;;;;9.70;7.95;;;;;;;18.34;62.27;102822.38;5137243;28;20870;-60
2022/08/10 04:11:14;;;;;;;13.18;8.23;;;;;;;18.38;62.39;102822.91;5150401;28;20417;-60
2022/08/10 04:13:46;;;;;;;9.73;7.93;;;;;;;18.37;62.41;102818.56;5147327;28;20429;-60
2022/08/10 04:16:18;;;;;;;10.53;8.03;;;;;;;18.31;62.58;102811.16;5148118;28;20423;-60
2022/08/10 04:18:51;;;;;;;10.80;7.68;;;;;;;18.35;62.50;102821.38;5143823;28;20936;-60
2022/08/10 04:21:31;;;;;;;11.18;8.35;;;;;;;18.35;62.69;102824.06;5150994;28;20866;-60
2022/08/10 04:24:04;;;;;;;11.48;8.30;;;;;;;18.12;62.62;102788.06;5150198;28;20421;-59
2022/08/10 04:26:37;;;;;;;11.45;8.30;;;;;;;18.35;62.78;102824.06;5154068;28;20960;-52
2022/08/10 04:29:09;;;;;;;11.57;8.48;;;;;;;18.35;62.69;102823.22;5170446;28;20411;-59
2022/08/10 04:31:43;;;;;;;9.35;7.18;;;;;;;18.35;62.94;102820.53;5163917;28;20856;-60
2022/08/10 04:34:16;;;;;;;11.82;8.00;;;;;;;18.35;62.88;102821.38;5150135;28;20417;-60
2022/08/10 04:36:53;;;;;;;9.70;7.47;;;;;;;18.33;63.08;102815.34;5150273;28;20777;-60
2022/08/10 04:39:25;;;;;;;9.85;6.95;;;;;;;18.37;63.11;102822.06;5151355;28;20413;-59
2022/08/10 04:41:58;;;;;;;10.00;7.90;;;;;;;18.26;63.06;102808.91;5146145;28;20528;-60
2022/08/10 04:44:30;;;;;;;10.02;7.03;;;;;;;18.41;63.31;102825.28;5146748;28;20416;-60
2022/08/10 04:47:03;;;;;;;8.50;7.22;;;;;;;18.41;63.19;102818.09;5149927;28;20739;-60
2022/08/10 04:49:35;;;;;;;11.38;8.07;;;;;;;18.40;63.28;102816.41;5150124;28;20416;-60
2022/08/10 04:52:09;;;;;;;10.87;7.70;;;;;;;18.46;63.30;102819.47;5142519;28;20495;-58
2022/08/10 04:54:59;;;;;;;10.25;7.53;;;;;;;18.47;63.49;102826.50;5150465;28;20443;-60
2022/08/10 04:57:32;;;;;;;13.43;8.70;;;;;;;18.48;63.60;102822.84;5129896;28;20942;-59
2022/08/10 05:00:05;;;;;;;10.90;7.78;;;;;;;18.50;63.56;102823.53;5134751;28;20754;-59
2022/08/10 05:02:37;;;;;;;12.90;8.00;;;;;;;18.52;63.57;102826.88;5143995;28;20428;-57
2022/08/10 05:05:10;;;;;;;10.38;8.15;;;;;;;18.55;63.69;102827.44;5145396;28;20424;-58
2022/08/10 05:07:44;;;;;;;9.40;7.80;;;;;;;18.59;63.70;102828.78;5145960;28;20424;-58
2022/08/10 05:10:16;;;;;;;11.02;7.70;;;;;;;18.61;63.72;102821.47;5149717;28;20417;-60
2022/08/10 05:12:48;;;;;;;10.25;8.27;;;;;;;18.63;63.75;102832.00;5150079;28;20870;-58
2022/08/10 05:15:22;;;;;;;12.68;8.18;;;;;;;18.68;64.08;102824.34;5144375;28;20414;-60
2022/08/10 05:17:54;;;;;;;10.70;8.30;;;;;;;18.72;63.67;102825.72;5137967;28;20430;-59
2022/08/10 05:20:27;;;;;;;10.77;8.27;;;;;;;18.79;63.81;102825.97;5136925;28;20412;-60
2022/08/10 05:23:01;;;;;;;11.23;8.45;;;;;;;18.85;63.85;102826.19;5167545;28;20415;-59
2022/08/10 05:25:35;;;;;;;10.73;7.63;;;;;;;18.91;63.66;102823.88;5161399;28;20419;-59
2022/08/10 05:28:08;;;;;;;13.52;9.57;;;;;;;18.95;63.91;102817.22;5151669;28;20468;-58
2022/08/10 05:30:40;;;;;;;12.02;8.25;;;;;;;19.02;64.04;102829.00;5148789;28;20480;-60
2022/08/10 05:33:12;;;;;;;9.18;7.40;;;;;;;19.09;63.92;102824.69;5147857;28;20946;-59
2022/08/10 05:35:45;;;;;;;11.50;7.67;;;;;;;19.15;63.94;102821.38;5149957;28;20421;-60
2022/08/10 05:38:22;;;;;;;12.57;7.73;;;;;;;19.23;63.87;102825.91;5143586;28;20717;-59
2022/08/10 05:40:55;;;;;;;9.83;6.90;;;;;;;19.30;63.82;102825.16;5139089;28;20507;-59
2022/08/10 05:43:28;;;;;;;12.38;7.60;;;;;;;19.36;63.94;102823.69;5145147;28;20409;-57
2022/08/10 05:46:00;;;;;;;9.73;7.78;;;;;;;19.43;64.06;102830.06;5148424;28;20695;-59
2022/08/10 05:48:33;;;;;;;12.55;7.50;;;;;;;19.58;63.82;102822.28;5144795;28;20492;-59
2022/08/10 05:51:06;;;;;;;9.55;7.40;;;;;;;20.41;62.89;102818.81;5141067;28;20413;-58
2022/08/10 05:53:40;;;;;;;6.28;5.50;;;;;;;21.80;61.36;102829.31;5134949;28;20794;-59
2022/08/10 05:56:13;;;;;;;8.50;5.10;;;;;;;23.16;60.13;102812.47;5148650;28;20454;-59
2022/08/10 05:58:45;;;;;;;6.88;4.60;;;;;;;24.13;59.01;102814.97;5149091;28;20896;-58
2022/08/10 06:01:22;;;;;;;6.63;4.47;;;;;;;24.98;58.06;102813.19;5147250;28;20877;-57
2022/08/10 06:03:57;;;;;;;5.65;3.80;;;;;;;25.99;56.57;102816.22;5146837;28;20764;-59
2022/08/10 06:06:32;;;;;;;7.45;3.40;;;;;;;26.89;55.09;102817.53;5149253;28;20696;-59
2022/08/10 06:09:07;;;;;;;5.00;3.30;;;;;;;27.57;53.92;102809.00;5144492;28;20838;-59
2022/08/10 06:11:40;;;;;;;5.82;3.25;;;;;;;28.33;52.41;102811.91;5146612;28;20952;-57
2022/08/10 06:17:05;;;;;;;6.10;3.20;;;;;;;28.62;51.42;102827.59;5149868;28;20830;-59
2022/08/10 06:19:38;;;;;;;10.02;3.63;;;;;;;28.75;50.71;102815.75;5162208;28;20439;-39
2022/08/10 06:22:11;;;;;;;4.93;2.80;;;;;;;28.68;50.23;102810.41;5169048;28;20813;-60
2022/08/10 06:24:46;;;;;;;7.50;3.23;;;;;;;28.45;50.14;102816.44;5158692;28;20773;-59
2022/08/10 06:27:19;;;;;;;6.27;3.37;;;;;;;27.80;50.64;102813.91;5149111;28;20420;-58
2022/08/10 06:29:52;;;;;;;4.82;2.88;;;;;;;27.47;51.01;102818.63;5145271;28;20432;-58
2022/08/10 06:32:27;;;;;;;6.40;3.80;;;;;;;27.37;50.75;102819.09;5148696;28;20519;-59
2022/08/10 06:35:01;;;;;;;5.95;3.22;;;;;;;27.23;50.54;102812.91;5138072;28;20398;-59
2022/08/10 06:37:34;;;;;;;6.10;3.22;;;;;;;27.12;50.33;102814.34;5143717;28;20512;-58
2022/08/10 06:40:10;;;;;;;6.40;3.10;;;;;;;26.94;50.63;102819.59;5149075;28;20512;-60
2022/08/10 06:42:49;;;;;;;5.57;3.75;;;;;;;27.10;50.14;102821.88;5146711;28;20409;-58
2022/08/10 06:45:27;;;;;;;5.25;3.08;;;;;;;27.88;48.79;102829.16;5148281;28;20424;-58
2022/08/10 06:48:03;;;;;;;7.32;3.63;;;;;;;28.55;47.82;102815.09;5148793;28;20431;-58
2022/08/10 06:50:39;;;;;;;4.95;3.10;;;;;;;29.11;46.97;102816.88;5144893;28;20619;-58
2022/08/10 06:53:14;;;;;;;3.92;2.67;;;;;;;29.54;46.30;102818.66;5138454;28;20746;-58
2022/08/10 06:55:55;;;;;;;6.38;2.75;;;;;;;30.30;45.42;102820.78;5152987;28;20491;-57
2022/08/10 06:58:36;;;;;;;4.38;2.70;;;;;;;30.80;44.73;102821.44;5153078;28;21403;-57
2022/08/10 07:01:12;;;;;;;6.10;2.83;;;;;;;31.21;44.08;102826.69;5150487;28;20491;-57
2022/08/10 07:03:49;;;;;;;6.53;2.38;;;;;;;31.62;43.21;102822.13;5152085;28;20754;-57
2022/08/10 07:06:22;;;;;;;4.60;2.60;;;;;;;31.72;43.17;102832.41;5144740;28;20796;-57
2022/08/10 07:08:56;;;;;;;9.55;3.05;;;;;;;31.75;42.67;102833.84;5148754;28;20424;-57
2022/08/10 07:11:31;;;;;;;4.03;2.40;;;;;;;31.70;42.78;102834.53;5152468;28;20866;-58
2022/08/10 07:14:05;;;;;;;4.22;2.58;;;;;;;32.26;42.10;102835.59;5152095;28;20419;-57
2022/08/10 07:16:41;;;;;;;7.20;2.97;;;;;;;32.46;41.63;102824.19;5150188;28;20868;-47
2022/08/10 07:19:14;;;;;;;5.70;3.22;;;;;;;32.10;41.60;102834.50;5151500;28;20408;-56
2022/08/10 07:21:47;;;;;;;4.60;2.78;;;;;;;32.05;41.91;102839.03;5151284;28;20880;-58
2022/08/10 07:24:20;;;;;;;6.03;3.07;;;;;;;31.63;42.08;102831.97;5151765;28;20874;-57
2022/08/10 07:26:56;;;;;;;6.30;3.25;;;;;;;31.40;42.25;102843.81;5150965;28;20416;-55
2022/08/10 07:29:30;;;;;;;4.63;2.65;;;;;;;31.23;42.28;102837.41;5152156;28;20487;-56
2022/08/10 07:32:04;;;;;;;5.57;3.00;;;;;;;31.29;41.79;102835.59;5147880;28;20487;-54
2022/08/10 07:34:37;;;;;;;6.63;2.70;;;;;;;31.55;41.70;102836.97;5150974;28;20432;-57
2022/08/10 07:37:11;;;;;;;4.40;2.38;;;;;;;31.92;40.85;102840.19;5131385;28;20493;-54
2022/08/10 07:39:46;;;;;;;6.05;3.05;;;;;;;32.30;40.25;102835.91;5127504;28;20766;-56
2022/08/10 07:42:22;;;;;;;3.90;2.30;;;;;;;31.92;40.56;102841.00;5126173;28;20434;-55
2022/08/10 07:44:55;;;;;;;6.60;2.75;;;;;;;32.04;40.78;102838.22;5125695;28;20796;-53
2022/08/10 07:47:31;;;;;;;5.33;2.47;;;;;;;32.13;40.35;102846.84;5140297;28;20842;-56
2022/08/10 07:50:08;;;;;;;3.17;1.90;;;;;;;32.43;39.85;102841.06;5144066;28;20431;-55
2022/08/10 07:52:42;;;;;;;5.38;2.20;;;;;;;32.47;39.88;102842.25;5149043;28;20413;-55
2022/08/10 07:55:19;;;;;;;5.70;2.50;;;;;;;32.45;40.13;102844.41;5138916;28;20856;-53
2022/08/10 07:57:56;;;;;;;3.63;1.83;;;;;;;32.64;39.72;102844.13;5136561;28;20752;-54
2022/08/10 08:00:31;;;;;;;6.72;2.10;;;;;;;32.94;39.24;102839.13;5140309;28;20751;-53
2022/08/10 08:03:06;;;;;;;4.25;2.25;;;;;;;32.83;39.63;102840.91;5131203;28;20855;-54
2022/08/10 08:05:39;;;;;;;4.28;2.50;;;;;;;32.46;39.68;102846.06;5149740;28;20818;-53
2022/08/10 08:08:15;;;;;;;6.07;2.90;;;;;;;31.87;40.66;102842.81;5150391;28;20424;-53
2022/08/10 08:10:48;;;;;;;6.13;2.53;;;;;;;31.60;40.93;102854.31;5162428;28;20771;-55
2022/08/10 08:13:23;;;;;;;3.72;2.50;;;;;;;31.53;40.67;102842.69;5167127;28;20447;-55
2022/08/10 08:15:59;;;;;;;6.13;2.67;;;;;;;31.49;40.92;102846.97;5153584;28;20853;-52
2022/08/10 08:18:32;;;;;;;5.20;2.53;;;;;;;31.49;40.84;102849.69;5150869;28;20479;-54
2022/08/10 08:21:06;;;;;;;2.47;1.77;;;;;;;31.34;40.91;102833.00;5139319;28;20871;-53
2022/08/10 08:23:39;;;;;;;4.00;1.80;;;;;;;31.34;40.92;102846.66;5133906;28;20544;-53
2022/08/10 08:26:12;;;;;;;3.97;1.60;;;;;;;31.40;40.79;102840.22;5143206;28;20897;-55
2022/08/10 08:28:47;;;;;;;5.20;1.90;;;;;;;31.52;40.70;102842.94;5151215;28;20805;-56
2022/08/10 08:31:21;;;;;;;8.98;2.55;;;;;;;31.40;40.75;102842.94;5151184;28;20722;-55
2022/08/10 08:33:55;;;;;;;5.45;2.30;;;;;;;31.25;40.97;102835.25;5150668;28;20416;-53
2022/08/10 08:36:29;;;;;;;3.87;2.10;;;;;;;30.74;41.33;102840.38;5150756;28;20904;-53
2022/08/10 08:39:01;;;;;;;4.03;2.25;;;;;;;30.64;41.55;102836.59;5144052;28;20748;-51
2022/08/10 08:42:00;;;;;;;4.40;1.77;;;;;;;30.53;41.50;102840.94;5149903;28;20803;-56
2022/08/10 08:45:06;;;;;;;4.43;1.85;;;;;;;30.12;42.02;102842.63;5149523;28;20875;-53
2022/08/10 08:48:20;;;;;;;5.50;2.10;;;;;;;30.09;41.89;102838.47;5139467;28;20864;-53
2022/08/10 08:51:08;;;;;;;6.82;2.33;;;;;;;29.82;41.72;102835.31;5141582;28;20433;-51
2022/08/10 08:53:55;;;;;;;6.00;2.55;;;;;;;29.48;42.22;102830.47;5148206;28;20745;-49
2022/08/10 08:56:37;;;;;;;4.15;1.83;;;;;;;29.32;42.42;102838.19;5137671;28;20657;-50
2022/08/10 08:59:28;;;;;;;5.55;1.98;;;;;;;29.17;42.24;102832.31;5148263;28;20416;-49
2022/08/10 09:02:24;;;;;;;3.92;2.03;;;;;;;28.91;42.26;102831.50;5150546;28;20880;-55
2022/08/10 09:05:12;;;;;;;4.25;2.38;;;;;;;28.53;42.56;102825.38;5148981;28;20431;-52
2022/08/10 09:08:19;;;;;;;3.72;1.80;;;;;;;28.23;42.82;102826.00;5163888;28;20415;-52
2022/08/10 09:10:58;;;;;;;4.55;1.80;;;;;;;28.29;42.63;102816.97;5160867;28;20952;-53
2022/08/10 09:13:39;;;;;;;4.88;1.75;;;;;;;28.69;41.95;102817.50;5160369;28;20436;-52
2022/08/10 09:16:26;;;;;;;3.67;1.70;;;;;;;28.92;41.72;102816.84;5148204;28;20499;-52
2022/08/10 09:19:09;;;;;;;3.53;1.60;;;;;;;28.60;42.00;102818.00;5142740;28;20946;-53
2022/08/10 09:21:51;;;;;;;6.97;2.53;;;;;;;28.42;42.23;102818.78;5135899;28;20902;-54
2022/08/10 09:24:35;;;;;;;7.95;2.38;;;;;;;28.40;41.97;102813.56;5142051;28;20743;-50
2022/08/10 09:27:17;;;;;;;5.97;2.25;;;;;;;28.41;42.16;102814.41;5137695;28;20435;-53
2022/08/10 09:29:56;;;;;;;9.40;1.90;;;;;;;28.35;42.21;102816.06;5145306;28;20508;-51
2022/08/10 09:32:42;;;;;;;4.03;2.05;;;;;;;28.40;42.13;102812.69;5145696;28;20413;-52
2022/08/10 09:35:26;;;;;;;4.15;2.40;;;;;;;28.30;42.23;102802.31;5147955;28;20730;-52
2022/08/10 09:38:08;;;;;;;4.57;2.20;;;;;;;28.40;42.03;102808.13;5149404;28;20427;-53
2022/08/10 09:40:54;;;;;;;3.65;1.70;;;;;;;28.47;41.94;102795.31;5146786;28;20810;-50
2022/08/10 09:43:40;;;;;;;4.97;2.05;;;;;;;28.41;42.01;102795.38;5150375;28;20842;-52
2022/08/10 09:46:32;;;;;;;3.70;1.73;;;;;;;28.40;42.03;102791.84;5143016;28;20494;-54
2022/08/10 09:49:16;;;;;;;4.50;2.13;;;;;;;28.62;41.75;102789.53;5149748;28;20415;-52
2022/08/10 09:52:01;;;;;;;4.57;2.00;;;;;;;28.47;41.74;102784.44;5146330;28;20781;-54
2022/08/10 09:54:48;;;;;;;6.00;1.95;;;;;;;28.40;41.96;102786.41;5148789;28;20412;-52
2022/08/10 09:57:28;;;;;;;6.53;2.05;;;;;;;28.17;42.12;102780.69;5137946;28;20442;-50
2022/08/10 10:00:09;;;;;;;3.47;2.20;;;;;;;28.00;42.22;102786.66;5141596;28;20785;-49
2022/08/10 10:03:00;;;;;;;5.27;2.23;;;;;;;27.85;42.47;102778.00;5134275;28;20709;-52
2022/08/10 10:05:45;;;;;;;3.75;2.17;;;;;;;27.77;42.51;102772.78;5149147;28;20731;-52
2022/08/10 10:08:29;;;;;;;3.60;1.88;;;;;;;27.93;42.24;102775.00;5148024;28;20416;-51
2022/08/10 10:11:10;;;;;;;4.18;1.70;;;;;;;28.09;42.03;102770.06;5140346;28;20419;-49
2022/08/10 10:13:56;;;;;;;3.75;1.80;;;;;;;28.32;41.72;102762.16;5141361;28;20435;-51
2022/08/10 10:16:49;;;;;;;4.28;2.45;;;;;;;28.32;41.64;102764.06;5137983;28;20733;-49
2022/08/10 10:19:52;;;;;;;4.30;1.70;;;;;;;28.24;42.01;102757.00;5142952;28;20777;-52
2022/08/10 10:22:44;;;;;;;4.82;2.08;;;;;;;28.25;42.13;102755.97;5141757;28;20419;-49
2022/08/10 10:25:30;;;;;;;5.65;2.05;;;;;;;28.33;41.61;102758.38;5118644;28;20843;-48
2022/08/10 10:28:27;;;;;;;4.22;1.95;;;;;;;28.41;41.70;102749.19;5116218;28;20575;-50
2022/08/10 10:31:11;;;;;;;6.15;2.03;;;;;;;28.48;41.34;102756.19;5125696;28;20399;-52
2022/08/10 10:33:54;;;;;;;5.05;2.10;;;;;;;28.50;41.48;102754.09;5120383;28;20812;-49
2022/08/10 10:36:28;;;;;;;4.85;2.10;;;;;;;28.58;41.21;102763.84;5126689;28;20886;-49
2022/08/10 10:39:01;;;;;;;5.13;2.05;;;;;;;28.69;41.00;102756.84;5148136;28;20796;-50
2022/08/10 10:41:47;;;;;;;3.70;1.60;;;;;;;28.92;40.77;102762.44;5146315;28;20488;-49
2022/08/10 10:44:37;;;;;;;3.50;2.03;;;;;;;28.92;40.75;102762.44;5141406;28;20896;-50
2022/08/10 10:47:50;;;;;;;5.65;2.60;;;;;;;28.91;40.68;102754.50;5138170;28;20410;-53
2022/08/10 10:50:34;;;;;;;5.88;2.38;;;;;;;28.89;40.72;102753.91;5142712;28;20413;-54
2022/08/10 10:53:16;;;;;;;4.70;1.77;;;;;;;28.90;40.59;102752.88;5127610;28;20751;-53
2022/08/10 10:55:53;;;;;;;5.82;2.17;;;;;;;28.93;40.25;102739.63;5121469;28;20534;-52
2022/08/10 10:58:36;;;;;;;5.07;1.80;;;;;;;29.10;40.27;102739.03;5124047;28;20478;-52
2022/08/10 11:01:22;;;;;;;4.63;1.40;;;;;;;29.10;40.07;102736.31;5165653;28;20443;-54
2022/08/10 11:04:17;;;;;;;3.78;1.85;;;;;;;29.00;39.82;102738.72;5168439;28;20871;-50
2022/08/10 11:07:02;;;;;;;3.55;1.65;;;;;;;28.98;39.91;102732.66;5150280;28;20435;-53
2022/08/10 11:09:41;;;;;;;3.55;1.90;;;;;;;29.09;39.78;102729.22;5148342;28;20917;-54
2022/08/10 11:12:23;;;;;;;4.78;2.30;;;;;;;29.03;39.67;102708.38;5146385;28;20733;-53
2022/08/10 11:15:06;;;;;;;5.00;1.95;;;;;;;29.07;39.63;102721.28;5151821;28;20412;-51
2022/08/10 11:17:49;;;;;;;4.75;2.10;;;;;;;28.96;39.67;102714.69;5142674;28;20410;-52
2022/08/10 11:20:31;;;;;;;9.80;1.50;;;;;;;28.92;39.74;102716.19;5133310;28;20421;-51
2022/08/10 11:23:18;;;;;;;2.42;1.50;;;;;;;29.21;39.31;102716.53;5148726;28;20424;-53
2022/08/10 11:26:01;;;;;;;3.25;1.70;;;;;;;29.49;38.80;102712.38;5143366;28;20413;-51
2022/08/10 11:28:40;;;;;;;4.30;1.85;;;;;;;29.17;39.44;102709.84;5139228;28;20416;-50
2022/08/10 11:31:42;;;;;;;4.65;1.77;;;;;;;28.88;39.34;102706.84;5147840;28;20419;-52
2022/08/10 11:34:18;;;;;;;3.60;1.50;;;;;;;28.86;39.42;102705.41;5144519;28;20405;-50
2022/08/10 11:37:02;;;;;;;2.97;1.38;;;;;;;29.01;39.01;102702.28;5149157;28;20415;-52
2022/08/10 11:39:43;;;;;;;5.50;1.37;;;;;;;28.92;38.72;102675.41;5152138;28;20791;-51
2022/08/10 11:42:30;;;;;;;2.60;1.15;;;;;;;29.15;38.69;102706.56;5133445;28;20823;-50
2022/08/10 11:45:09;;;;;;;2.10;1.23;;;;;;;29.10;38.31;102692.78;5147525;28;20788;-51
2022/08/10 11:47:50;;;;;;;2.40;1.58;;;;;;;29.19;38.07;102707.75;5144772;28;20435;-50
2022/08/10 11:50:28;;;;;;;3.65;1.25;;;;;;;29.41;37.64;102689.03;5145994;28;20416;-50
2022/08/10 11:53:09;;;;;;;2.90;1.17;;;;;;;29.50;37.29;102692.25;5151469;28;20424;-51
2022/08/10 11:55:49;;;;;;;1.38;1.00;;;;;;;29.51;37.10;102693.91;5153884;28;20407;-50
2022/08/10 12:01:16;;;;;;;3.08;1.33;;;;;;;29.47;36.61;102690.81;5124680;28;20889;-48
2022/08/10 12:03:51;;;;;;;2.88;1.55;;;;;;;29.73;36.33;102696.94;5151161;28;20773;-52
2022/08/10 12:06:25;;;;;;;6.43;1.60;;;;;;;29.92;35.93;102684.94;5151632;28;20423;-52
2022/08/10 12:08:58;;;;;;;3.90;1.00;;;;;;;29.99;35.76;102690.25;5150346;28;20408;-53
2022/08/10 12:11:31;;;;;;;4.55;1.23;;;;;;;29.98;35.64;102669.50;5151169;28;20413;-54
2022/08/10 12:14:10;;;;;;;1.73;0.98;;;;;;;30.07;35.16;102681.72;5152060;28;20515;-54
2022/08/10 12:16:47;;;;;;;3.50;1.00;;;;;;;30.01;35.04;102677.22;5148656;28;20916;-56
2022/08/10 12:19:28;;;;;;;3.22;1.00;;;;;;;30.03;34.76;102670.47;5143087;28;20814;-53
2022/08/10 12:22:05;;;;;;;2.47;0.90;;;;;;;30.00;34.51;102673.66;5146737;28;20405;-55